createdAt,value
2022-10-14T00:00:27.100Z,100747.75
2022-10-14T00:02:54.802Z,100747.66
2022-10-14T00:05:22.535Z,100737.41
2022-10-14T00:07:50.464Z,100735.34
2022-10-14T00:10:18.360Z,100733.50
2022-10-14T00:12:47.796Z,100729.25
2022-10-14T00:15:15.514Z,100730.50
2022-10-14T00:17:43.448Z,100723.06
2022-10-14T00:20:11.793Z,100722.25
2022-10-14T00:22:39.642Z,100725.81
2022-10-14T00:25:08.311Z,100728.88
2022-10-14T00:27:36.607Z,100730.88
2022-10-14T00:30:06.416Z,100726.13
2022-10-14T00:32:34.575Z,100719.31
2022-10-14T00:35:02.787Z,100728.88
2022-10-14T00:37:30.702Z,100731.31
2022-10-14T00:39:58.630Z,100728.38
2022-10-14T00:42:26.386Z,100737.81
2022-10-14T00:45:07.733Z,100728.97
2022-10-14T00:47:35.722Z,100726.84
2022-10-14T00:50:03.964Z,100725.50
2022-10-14T00:52:31.781Z,100730.69
2022-10-14T00:55:02.242Z,100731.31
2022-10-14T00:57:30.552Z,100732.72
2022-10-14T01:00:02.304Z,100735.47
2022-10-14T01:02:31.674Z,100736.97
2022-10-14T01:05:00.474Z,100726.81
2022-10-14T01:07:34.695Z,100725.50
2022-10-14T01:10:07.920Z,100730.88
2022-10-14T01:12:42.287Z,100727.50
2022-10-14T01:15:15.920Z,100730.75
2022-10-14T01:17:48.371Z,100736.34
2022-10-14T01:20:27.161Z,100725.28
2022-10-14T01:23:02.319Z,100719.69
2022-10-14T01:25:34.171Z,100723.53
2022-10-14T01:28:09.334Z,100722.63
2022-10-14T01:30:43.386Z,100718.25
2022-10-14T01:33:13.861Z,100718.25
2022-10-14T01:35:45.199Z,100716.53
2022-10-14T01:38:15.816Z,100718.25
2022-10-14T01:40:51.175Z,100710.34
2022-10-14T01:43:20.454Z,100712.16
2022-10-14T01:45:51.184Z,100715.84
2022-10-14T01:48:20.813Z,100710.34
2022-10-14T01:50:51.042Z,100702.25
2022-10-14T01:53:20.600Z,100701.44
2022-10-14T01:55:49.014Z,100701.44
2022-10-14T01:58:18.685Z,100693.22
2022-10-14T02:00:47.785Z,100684.97
2022-10-14T02:03:17.012Z,100692.69
2022-10-14T02:05:47.611Z,100688.34
2022-10-14T02:08:21.845Z,100684.97
2022-10-14T02:11:02.137Z,100677.06
2022-10-14T02:13:38.271Z,100673.81
2022-10-14T02:16:13.492Z,100681.13
2022-10-14T02:18:48.264Z,100668.03
2022-10-14T02:21:19.391Z,100670.50
2022-10-14T02:23:50.400Z,100678.38
2022-10-14T02:26:19.326Z,100678.69
2022-10-14T02:28:48.170Z,100674.50
2022-10-14T02:31:18.116Z,100668.28
2022-10-14T02:33:50.241Z,100671.53
2022-10-14T02:36:20.890Z,100668.91
2022-10-14T02:38:49.480Z,100663.09
2022-10-14T02:41:18.898Z,100661.63
2022-10-14T02:43:47.119Z,100663.03
2022-10-14T02:46:14.983Z,100658.38
2022-10-14T02:48:42.700Z,100655.44
2022-10-14T02:51:11.870Z,100649.44
2022-10-14T02:53:39.558Z,100649.63
2022-10-14T02:56:07.792Z,100641.91
2022-10-14T02:58:35.478Z,100643.34
2022-10-14T03:01:03.218Z,100637.03
2022-10-14T03:03:31.135Z,100642.72
2022-10-14T03:06:01.003Z,100638.84
2022-10-14T03:08:30.798Z,100634.84
2022-10-14T03:10:58.925Z,100633.22
2022-10-14T03:13:26.617Z,100627.25
2022-10-14T03:15:54.519Z,100624.03
2022-10-14T03:18:22.539Z,100619.34
2022-10-14T03:20:50.248Z,100620.13
2022-10-14T03:23:17.995Z,100626.94
2022-10-14T03:25:47.586Z,100625.00
2022-10-14T03:28:15.559Z,100621.34
2022-10-14T03:30:43.391Z,100620.31
2022-10-14T03:33:14.345Z,100623.06
2022-10-14T03:35:42.985Z,100614.03
2022-10-14T03:38:10.734Z,100610.78
2022-10-14T03:40:38.660Z,100607.72
2022-10-14T03:43:07.710Z,100605.28
2022-10-14T03:45:35.477Z,100614.34
2022-10-14T03:48:03.369Z,100614.41
2022-10-14T03:50:31.472Z,100617.59
2022-10-14T03:52:59.170Z,100608.75
2022-10-14T03:55:26.943Z,100607.56
2022-10-14T03:57:54.823Z,100607.56
2022-10-14T04:00:24.151Z,100606.56
2022-10-14T04:02:51.845Z,100605.66
2022-10-14T04:05:19.568Z,100603.22
2022-10-14T04:07:48.149Z,100604.34
2022-10-14T04:10:16.024Z,100613.69
2022-10-14T04:12:44.159Z,100611.75
2022-10-14T04:15:12.346Z,100610.66
2022-10-14T04:17:41.376Z,100619.78
2022-10-14T04:20:09.436Z,100617.97
2022-10-14T04:22:37.244Z,100612.69
2022-10-14T04:25:05.423Z,100614.81
2022-10-14T04:27:33.165Z,100617.88
2022-10-14T04:30:00.848Z,100620.00
2022-10-14T04:32:28.623Z,100612.50
2022-10-14T04:34:57.688Z,100602.53
2022-10-14T04:37:25.927Z,100607.50
2022-10-14T04:39:53.618Z,100596.03
2022-10-14T04:42:21.508Z,100596.53
2022-10-14T04:44:50.088Z,100601.72
2022-10-14T04:47:17.777Z,100600.59
2022-10-14T04:49:45.759Z,100593.06
2022-10-14T04:52:14.842Z,100593.69
2022-10-14T04:54:42.579Z,100593.19
2022-10-14T04:57:11.429Z,100598.06
2022-10-14T04:59:39.157Z,100597.03
2022-10-14T05:02:07.082Z,100596.53
2022-10-14T05:04:34.924Z,100591.44
2022-10-14T05:07:02.697Z,100595.94
2022-10-14T05:09:31.765Z,100598.66
2022-10-14T05:11:59.497Z,100588.00
2022-10-14T05:14:27.369Z,100597.25
2022-10-14T05:16:55.081Z,100587.69
2022-10-14T05:19:23.026Z,100584.34
2022-10-14T05:21:50.776Z,100582.91
2022-10-14T05:24:18.825Z,100585.47
2022-10-14T05:26:48.559Z,100579.34
2022-10-14T05:29:16.591Z,100583.22
2022-10-14T05:31:44.327Z,100580.59
2022-10-14T05:34:12.499Z,100570.25
2022-10-14T05:36:42.243Z,100569.63
2022-10-14T05:39:11.421Z,100567.50
2022-10-14T05:41:39.228Z,100563.53
2022-10-14T05:44:08.353Z,100559.97
2022-10-14T05:46:36.259Z,100568.38
2022-10-14T05:49:05.909Z,100564.09
2022-10-14T05:51:33.823Z,100553.06
2022-10-14T05:54:01.656Z,100550.63
2022-10-14T05:56:29.470Z,100543.81
2022-10-14T05:58:57.495Z,100546.56
2022-10-14T06:01:26.674Z,100545.66
2022-10-14T06:03:54.436Z,100548.47
2022-10-14T06:06:26.686Z,100547.03
2022-10-14T06:08:57.051Z,100549.59
2022-10-14T06:11:25.000Z,100546.41
2022-10-14T06:13:53.718Z,100546.22
2022-10-14T06:16:21.457Z,100549.47
2022-10-14T06:18:54.260Z,100541.25
2022-10-14T06:21:22.614Z,100538.50
2022-10-14T06:23:50.403Z,100540.94
2022-10-14T06:26:18.222Z,100539.00
2022-10-14T06:28:46.285Z,100537.84
2022-10-14T06:31:14.188Z,100527.75
2022-10-14T06:33:43.485Z,100528.75
2022-10-14T06:36:12.862Z,100525.69
2022-10-14T06:38:40.608Z,100526.00
2022-10-14T06:41:08.424Z,100529.69
2022-10-14T06:43:36.168Z,100518.09
2022-10-14T06:46:04.617Z,100511.97
2022-10-14T06:48:32.611Z,100518.28
2022-10-14T06:51:00.916Z,100512.28
2022-10-14T06:53:30.448Z,100515.53
2022-10-14T06:55:58.975Z,100521.41
2022-10-14T06:58:26.893Z,100517.41
2022-10-14T07:00:54.691Z,100509.28
2022-10-14T07:03:23.374Z,100513.78
2022-10-14T07:05:51.595Z,100513.16
2022-10-14T07:08:19.882Z,100509.00
2022-10-14T07:10:49.253Z,100512.13
2022-10-14T07:13:17.003Z,100513.75
2022-10-14T07:15:48.229Z,100512.13
2022-10-14T07:18:16.214Z,100513.31
2022-10-14T07:20:44.046Z,100500.88
2022-10-14T07:23:12.212Z,100514.47
2022-10-14T07:25:39.985Z,100517.56
2022-10-14T07:28:09.394Z,100509.81
2022-10-14T07:30:37.603Z,100506.56
2022-10-14T07:33:05.498Z,100501.94
2022-10-14T07:35:33.238Z,100494.53
2022-10-14T07:38:02.016Z,100492.00
2022-10-14T07:40:29.994Z,100491.38
2022-10-14T07:42:57.806Z,100485.09
2022-10-14T07:45:27.029Z,100492.84
2022-10-14T07:47:54.849Z,100489.63
2022-10-14T07:50:22.914Z,100485.94
2022-10-14T07:52:51.042Z,100496.78
2022-10-14T07:55:18.842Z,100509.84
2022-10-14T07:57:46.611Z,100500.00
2022-10-14T08:00:14.496Z,100506.81
2022-10-14T08:02:43.644Z,100494.38
2022-10-14T08:05:38.230Z,100498.72
2022-10-14T08:07:59.412Z,100499.41
2022-10-14T08:10:27.270Z,100505.88
2022-10-14T08:12:55.067Z,100501.63
2022-10-14T08:15:22.853Z,100506.50
2022-10-14T08:17:52.790Z,100496.41
2022-10-14T08:22:49.442Z,100488.81
2022-10-14T08:25:17.281Z,100487.69
2022-10-14T08:27:45.099Z,100489.94
2022-10-14T08:30:12.931Z,100486.69
2022-10-14T08:32:40.925Z,100489.63
2022-10-14T08:35:11.265Z,100486.56
2022-10-14T08:37:39.076Z,100484.94
2022-10-14T08:40:07.666Z,100488.19
2022-10-14T08:42:39.203Z,100486.88
2022-10-14T08:45:11.119Z,100477.94
2022-10-14T08:47:42.102Z,100472.06
2022-10-14T08:50:20.595Z,100479.00
2022-10-14T08:52:51.166Z,100477.19
2022-10-14T08:55:22.869Z,100481.88
2022-10-14T08:57:54.948Z,100481.66
2022-10-14T09:00:23.123Z,100471.66
2022-10-14T09:02:52.028Z,100470.06
2022-10-14T09:05:22.696Z,100455.91
2022-10-14T09:10:27.739Z,100455.03
2022-10-14T09:12:57.238Z,100447.66
2022-10-14T09:15:28.520Z,100440.19
2022-10-14T09:18:01.743Z,100441.09
2022-10-14T09:20:31.350Z,100433.56
2022-10-14T09:23:06.303Z,100431.38
2022-10-14T09:25:35.638Z,100436.19
2022-10-14T09:28:03.803Z,100431.97
2022-10-14T09:30:36.636Z,100427.81
2022-10-14T09:33:05.387Z,100420.34
2022-10-14T09:35:35.750Z,100432.47
2022-10-14T09:38:03.468Z,100427.50
2022-10-14T09:40:33.535Z,100432.19
2022-10-14T09:43:04.002Z,100426.91
2022-10-14T09:45:46.899Z,100428.31
2022-10-14T09:48:16.310Z,100418.03
2022-10-14T09:50:50.724Z,100420.69
2022-10-14T09:53:21.553Z,100423.00
2022-10-14T09:55:50.151Z,100422.19
2022-10-14T09:58:19.615Z,100432.94
2022-10-14T10:00:47.541Z,100427.88
2022-10-14T10:03:25.617Z,100422.63
2022-10-14T10:06:01.783Z,100409.50
2022-10-14T10:08:29.669Z,100407.00
2022-10-14T10:11:03.727Z,100415.28
2022-10-14T10:13:39.308Z,100412.06
2022-10-14T10:16:08.781Z,100393.22
2022-10-14T10:18:36.575Z,100391.31
2022-10-14T10:21:07.594Z,100395.00
2022-10-14T10:23:36.547Z,100393.84
2022-10-14T10:26:15.510Z,100391.41
2022-10-14T10:28:47.270Z,100393.78
2022-10-14T10:31:22.250Z,100391.19
2022-10-14T10:33:55.695Z,100378.25
2022-10-14T10:36:30.045Z,100379.44
2022-10-14T10:38:59.722Z,100376.59
2022-10-14T10:41:44.433Z,100374.91
2022-10-14T10:44:28.739Z,100378.94
2022-10-14T10:47:03.973Z,100378.19
2022-10-14T10:49:38.830Z,100369.66
2022-10-14T10:52:20.345Z,100361.19
2022-10-14T10:54:53.290Z,100359.00
2022-10-14T10:57:30.132Z,100355.66
2022-10-14T11:00:02.668Z,100363.81
2022-10-14T11:03:00.898Z,100348.63
2022-10-14T11:05:36.800Z,100353.00
2022-10-14T11:08:28.527Z,100346.84
2022-10-14T11:11:30.945Z,100350.00
2022-10-14T11:14:04.353Z,100338.56
2022-10-14T11:16:36.007Z,100334.47
2022-10-14T11:19:10.967Z,100321.56
2022-10-14T11:21:44.594Z,100324.88
2022-10-14T11:24:22.639Z,100327.41
2022-10-14T11:26:58.698Z,100332.00
2022-10-14T11:29:38.543Z,100326.97
2022-10-14T11:32:10.911Z,100328.69
2022-10-14T11:34:43.726Z,100323.38
2022-10-14T11:37:21.226Z,100324.78
2022-10-14T11:39:55.974Z,100312.91
2022-10-14T11:42:28.755Z,100315.66
2022-10-14T11:45:02.681Z,100311.31
2022-10-14T11:47:33.559Z,100305.34
2022-10-14T11:50:03.933Z,100300.38
2022-10-14T11:52:33.647Z,100303.34
2022-10-14T11:55:09.658Z,100296.81
2022-10-14T11:57:42.947Z,100297.25
2022-10-14T12:00:29.609Z,100297.59
2022-10-14T12:03:03.952Z,100287.44
2022-10-14T12:05:36.923Z,100286.44
2022-10-14T12:08:08.873Z,100287.94
2022-10-14T12:10:40.105Z,100280.00
2022-10-14T12:13:11.778Z,100278.88
2022-10-14T12:15:42.618Z,100286.69
2022-10-14T12:18:12.491Z,100276.59
2022-10-14T12:20:44.825Z,100276.53
2022-10-14T12:23:15.957Z,100262.75
2022-10-14T12:25:49.903Z,100263.00
2022-10-14T12:28:19.600Z,100261.59
2022-10-14T12:30:48.167Z,100262.50
2022-10-14T12:33:22.709Z,100259.59
2022-10-14T12:35:59.131Z,100265.03
2022-10-14T12:38:27.799Z,100263.44
2022-10-14T12:41:18.563Z,100261.22
2022-10-14T12:44:00.156Z,100257.19
2022-10-14T12:46:28.302Z,100258.19
2022-10-14T12:48:56.183Z,100252.53
2022-10-14T12:51:24.917Z,100248.13
2022-10-14T12:53:57.989Z,100247.19
2022-10-14T12:56:30.044Z,100246.22
2022-10-14T12:59:01.138Z,100240.06
2022-10-14T13:01:33.834Z,100238.31
2022-10-14T13:04:07.447Z,100232.00
2022-10-14T13:06:37.788Z,100236.09
2022-10-14T13:09:23.958Z,100225.44
2022-10-14T13:12:06.715Z,100225.44
2022-10-14T13:14:54.639Z,100222.72
2022-10-14T13:17:30.926Z,100229.56
2022-10-14T13:19:58.820Z,100218.28
2022-10-14T13:22:40.334Z,100218.81
2022-10-14T13:25:19.022Z,100220.84
2022-10-14T13:27:57.049Z,100203.28
2022-10-14T13:30:33.715Z,100188.88
2022-10-14T13:33:06.356Z,100197.72
2022-10-14T13:35:38.857Z,100196.09
2022-10-14T13:38:08.084Z,100187.34
2022-10-14T13:40:37.048Z,100178.69
2022-10-14T13:43:07.924Z,100175.94
2022-10-14T13:45:39.730Z,100174.66
2022-10-14T13:48:14.054Z,100179.75
2022-10-14T13:50:42.865Z,100174.88
2022-10-14T13:53:15.439Z,100176.72
2022-10-14T13:55:43.958Z,100179.19
2022-10-14T13:58:13.933Z,100183.31
2022-10-14T14:00:43.654Z,100166.31
2022-10-14T14:03:16.708Z,100170.41
2022-10-14T14:05:44.829Z,100160.00
2022-10-14T14:11:16.858Z,100165.72
2022-10-14T14:13:53.230Z,100165.59
2022-10-14T14:16:25.685Z,100158.88
2022-10-14T14:19:04.354Z,100161.09
2022-10-14T14:21:37.718Z,100157.72
2022-10-14T14:24:11.682Z,100154.50
2022-10-14T14:26:40.479Z,100156.13
2022-10-14T14:29:16.002Z,100146.25
2022-10-14T14:32:05.538Z,100162.94
2022-10-14T14:37:56.458Z,100155.13
2022-10-14T14:40:25.791Z,100141.72
2022-10-14T14:42:54.763Z,100147.50
2022-10-14T14:45:25.409Z,100145.50
2022-10-14T14:47:55.610Z,100146.84
2022-10-14T14:50:31.415Z,100145.06
2022-10-14T14:53:03.308Z,100141.84
2022-10-14T14:55:35.444Z,100138.09
2022-10-14T14:58:04.699Z,100132.69
2022-10-14T15:00:32.592Z,100127.50
2022-10-14T15:03:02.419Z,100127.84
2022-10-14T15:05:31.906Z,100128.19
2022-10-14T15:07:59.692Z,100130.59
2022-10-14T15:10:29.463Z,100126.56
2022-10-14T15:12:58.397Z,100122.06
2022-10-14T15:15:27.604Z,100118.38
2022-10-14T15:18:13.075Z,100119.50
2022-10-14T15:20:43.434Z,100113.53
2022-10-14T15:23:29.874Z,100110.31
2022-10-14T15:26:00.656Z,100114.88
2022-10-14T15:28:29.862Z,100123.66
2022-10-14T15:31:02.958Z,100115.94
2022-10-14T15:33:33.605Z,100125.06
2022-10-14T15:36:03.527Z,100121.63
2022-10-14T15:41:05.525Z,100113.75
2022-10-14T15:43:34.648Z,100106.00
2022-10-14T15:46:20.051Z,100104.66
2022-10-14T15:48:49.816Z,100097.56
2022-10-14T15:51:20.026Z,100088.44
2022-10-14T15:53:48.982Z,100093.00
2022-10-14T15:56:17.011Z,100081.34
2022-10-14T15:58:44.789Z,100077.31
2022-10-14T16:01:16.919Z,100081.53
2022-10-14T16:03:44.851Z,100078.91
2022-10-14T16:06:14.465Z,100075.34
2022-10-14T16:08:43.586Z,100075.56
2022-10-14T16:11:17.924Z,100066.44
2022-10-14T16:13:45.846Z,100068.06
2022-10-14T16:16:13.974Z,100063.22
2022-10-14T16:18:41.697Z,100072.59
2022-10-14T16:21:11.026Z,100061.59
2022-10-14T16:23:38.940Z,100070.06
2022-10-14T16:26:08.695Z,100065.50
2022-10-14T16:28:40.812Z,100068.72
2022-10-14T16:31:11.194Z,100064.88
2022-10-14T16:33:41.756Z,100071.19
2022-10-14T16:36:14.677Z,100074.88
2022-10-14T16:38:42.526Z,100066.81
2022-10-14T16:41:12.335Z,100067.09
2022-10-14T16:43:40.210Z,100068.44
2022-10-14T16:46:10.525Z,100067.63
2022-10-14T16:48:41.265Z,100062.47
2022-10-14T16:51:09.036Z,100059.91
2022-10-14T16:53:44.752Z,100055.97
2022-10-14T16:56:32.693Z,100052.88
2022-10-14T16:59:01.838Z,100052.75
2022-10-14T17:01:30.118Z,100061.31
2022-10-14T17:03:58.268Z,100058.09
2022-10-14T17:06:26.758Z,100062.13
2022-10-14T17:08:54.662Z,100054.06
2022-10-14T17:11:24.704Z,100068.28
2022-10-14T17:13:52.665Z,100066.16
2022-10-14T17:16:20.581Z,100065.88
2022-10-14T17:21:16.950Z,100069.78
2022-10-14T17:23:45.539Z,100078.50
2022-10-14T17:26:14.916Z,100073.66
2022-10-14T17:28:44.183Z,100060.38
2022-10-14T17:31:13.437Z,100060.38
2022-10-14T17:33:41.780Z,100062.94
2022-10-14T17:36:17.709Z,100058.09
2022-10-14T17:38:45.619Z,100069.78
2022-10-14T17:41:14.564Z,100072.22
2022-10-14T17:43:45.804Z,100070.44
2022-10-14T17:47:18.764Z,100075.31
2022-10-14T17:49:46.638Z,100067.22
2022-10-14T17:52:14.438Z,100061.03
2022-10-14T17:54:42.187Z,100068.34
2022-10-14T17:57:09.963Z,100061.56
2022-10-14T17:59:38.076Z,100064.06
2022-10-14T18:02:09.498Z,100055.69
2022-10-14T18:04:38.584Z,100050.84
2022-10-14T18:07:06.332Z,100056.03
2022-10-14T18:09:34.597Z,100054.28
2022-10-14T18:12:10.333Z,100051.88
2022-10-14T18:14:38.700Z,100056.97
2022-10-14T18:17:06.531Z,100056.97
2022-10-14T18:19:34.942Z,100065.53
2022-10-14T18:22:04.224Z,100053.88
2022-10-14T18:24:32.281Z,100070.72
2022-10-14T18:27:00.218Z,100080.75
2022-10-14T18:29:27.972Z,100073.31
2022-10-14T18:31:55.753Z,100069.78
2022-10-14T18:34:25.268Z,100075.28
2022-10-14T18:36:52.965Z,100069.41
2022-10-14T18:39:22.421Z,100065.22
2022-10-14T18:41:50.181Z,100067.50
2022-10-14T18:44:18.138Z,100058.47
2022-10-14T18:46:47.453Z,100054.25
2022-10-14T18:49:15.312Z,100053.44
2022-10-14T18:51:43.367Z,100055.41
2022-10-14T18:54:13.286Z,100055.09
2022-10-14T18:56:43.576Z,100058.19
2022-10-14T18:59:12.233Z,100048.34
2022-10-14T19:01:40.501Z,100047.72
2022-10-14T19:04:09.941Z,100045.94
2022-10-14T19:06:37.775Z,100046.94
2022-10-14T19:09:06.485Z,100048.94
2022-10-14T19:11:35.280Z,100038.44
2022-10-14T19:14:05.239Z,100042.66
2022-10-14T19:16:34.269Z,100043.63
2022-10-14T19:19:03.930Z,100042.66
2022-10-14T19:21:33.153Z,100046.84
2022-10-14T19:24:02.103Z,100053.47
2022-10-14T19:26:30.892Z,100055.72
2022-10-14T19:28:59.250Z,100049.59
2022-10-14T19:31:29.297Z,100056.84
2022-10-14T19:33:57.579Z,100041.03
2022-10-14T19:36:26.141Z,100038.78
2022-10-14T19:39:00.032Z,100043.78
2022-10-14T19:41:28.943Z,100037.63
2022-10-14T19:43:58.100Z,100035.06
2022-10-14T19:46:27.391Z,100036.50
2022-10-14T19:48:57.489Z,100035.06
2022-10-14T19:51:25.490Z,100030.53
2022-10-14T19:53:55.162Z,100037.31
2022-10-14T19:56:23.273Z,100036.00
2022-10-14T19:58:51.586Z,100034.88
2022-10-14T20:04:15.777Z,100011.00
2022-10-14T20:06:44.999Z,100017.28
2022-10-14T20:09:14.546Z,100017.28
2022-10-14T20:11:43.687Z,100022.31
2022-10-14T20:14:11.445Z,100020.69
2022-10-14T20:19:22.069Z,100019.06
2022-10-14T20:21:50.381Z,100016.00
2022-10-14T20:24:21.911Z,100015.19
2022-10-14T20:26:50.357Z,100019.56
2022-10-14T20:29:18.346Z,100025.03
2022-10-14T20:31:46.520Z,100016.16
2022-10-14T20:34:14.501Z,100012.09
2022-10-14T20:36:43.897Z,100019.00
2022-10-14T20:39:12.264Z,100009.63
2022-10-14T20:41:40.393Z,100004.84
2022-10-14T20:44:08.282Z,100002.75
2022-10-14T20:46:36.140Z,100006.63
2022-10-14T20:49:04.592Z,100004.19
2022-10-14T20:51:32.567Z,100011.00
2022-10-14T20:54:04.238Z,100005.84
2022-10-14T20:56:35.038Z,100009.56
2022-10-14T20:59:04.056Z,100013.28
2022-10-14T21:01:32.643Z,100013.94
2022-10-14T21:04:01.469Z,100005.69
2022-10-14T21:06:29.841Z,100006.81
2022-10-14T21:08:58.367Z,100005.53
2022-10-14T21:11:28.125Z,100002.19
2022-10-14T21:13:57.140Z,100000.25
2022-10-14T21:16:26.434Z,100001.72
2022-10-14T21:18:57.881Z,99999.47
2022-10-14T21:21:27.025Z,100000.59
2022-10-14T21:23:55.167Z,99998.81
2022-10-14T21:26:23.533Z,99998.97
2022-10-14T21:28:52.959Z,100004.13
2022-10-14T21:31:21.953Z,99999.47
2022-10-14T21:33:54.851Z,99998.34
2022-10-14T21:36:23.082Z,99991.22
2022-10-14T21:38:50.911Z,99993.81
2022-10-14T21:41:18.866Z,99988.66
2022-10-14T21:43:46.705Z,99991.72
2022-10-14T21:46:16.895Z,99985.78
2022-10-14T21:48:45.962Z,99982.69
2022-10-14T21:51:14.780Z,99996.75
2022-10-14T21:53:43.332Z,99992.53
2022-10-14T21:56:12.020Z,99986.41
2022-10-14T21:58:40.233Z,99982.53
2022-10-14T22:01:10.367Z,99986.41
2022-10-14T22:03:40.471Z,99988.16
2022-10-14T22:06:09.685Z,99991.22
2022-10-14T22:08:38.890Z,99995.75
2022-10-14T22:11:06.923Z,99992.53
2022-10-14T22:13:34.941Z,99990.78
2022-10-14T22:16:03.084Z,99987.22
2022-10-14T22:18:30.973Z,99978.69
2022-10-14T22:21:04.961Z,99987.03
2022-10-14T22:23:33.715Z,99984.31
2022-10-14T22:26:02.149Z,99990.25
2022-10-14T22:28:30.960Z,99996.56
2022-10-14T22:31:04.482Z,99985.44
2022-10-14T22:33:32.498Z,99990.91
2022-10-14T22:36:07.303Z,99992.03
2022-10-14T22:38:35.430Z,99992.72
2022-10-14T22:41:03.643Z,99992.25
2022-10-14T22:43:31.483Z,99982.88
2022-10-14T22:45:59.772Z,99984.81
2022-10-14T22:48:27.552Z,99982.88
2022-10-14T22:50:55.600Z,99981.56
2022-10-14T22:53:24.987Z,99977.34
2022-10-14T22:55:52.814Z,99967.53
2022-10-14T22:58:20.661Z,99970.59
2022-10-14T23:00:48.695Z,99968.97
2022-10-14T23:03:16.695Z,99966.44
2022-10-14T23:05:44.497Z,99972.41
2022-10-14T23:08:14.637Z,99977.19
2022-10-14T23:10:44.598Z,99979.44
2022-10-14T23:13:12.501Z,99980.09
2022-10-14T23:15:40.443Z,99974.28
2022-10-14T23:18:08.228Z,99976.06
2022-10-14T23:20:35.977Z,99983.16
2022-10-14T23:23:03.719Z,99964.44
2022-10-14T23:25:31.603Z,99959.13
2022-10-14T23:28:01.000Z,99969.09
2022-10-14T23:30:28.776Z,99969.25
2022-10-14T23:32:56.571Z,99977.97
2022-10-14T23:35:24.409Z,99976.84
2022-10-14T23:37:52.221Z,99966.84
2022-10-14T23:40:20.132Z,99958.28
2022-10-14T23:42:47.971Z,99965.38
2022-10-14T23:45:17.225Z,99962.00
2022-10-14T23:47:45.115Z,99964.84
2022-10-14T23:50:12.872Z,99968.09
2022-10-14T23:52:40.866Z,99957.09
2022-10-14T23:55:09.208Z,99967.28
2022-10-14T23:57:37.137Z,99961.78
